sensor_id;sensor_type;location;lat;lon;timestamp;temperature;humidity
13944;DHT22;7044;53.286;8.534;2022-10-16T00:01:06;14.40;99.90
13944;DHT22;7044;53.286;8.534;2022-10-16T00:03:33;14.40;99.90
13944;DHT22;7044;53.286;8.534;2022-10-16T00:06:01;14.40;99.90
13944;DHT22;7044;53.286;8.534;2022-10-16T00:08:28;14.40;99.90
13944;DHT22;7044;53.286;8.534;2022-10-16T00:10:59;14.30;99.90
13944;DHT22;7044;53.286;8.534;2022-10-16T00:13:28;14.30;99.90
13944;DHT22;7044;53.286;8.534;2022-10-16T00:15:56;14.20;99.90
13944;DHT22;7044;53.286;8.534;2022-10-16T00:18:23;14.20;99.90
13944;DHT22;7044;53.286;8.534;2022-10-16T00:20:49;14.20;99.90
13944;DHT22;7044;53.286;8.534;2022-10-16T00:23:16;14.20;99.90
13944;DHT22;7044;53.286;8.534;2022-10-16T00:25:43;14.10;99.90
13944;DHT22;7044;53.286;8.534;2022-10-16T00:28:10;14.10;99.90
13944;DHT22;7044;53.286;8.534;2022-10-16T00:30:39;14.10;99.90
13944;DHT22;7044;53.286;8.534;2022-10-16T00:33:06;14.10;99.90
13944;DHT22;7044;53.286;8.534;2022-10-16T00:35:32;14.10;99.90
13944;DHT22;7044;53.286;8.534;2022-10-16T00:37:59;14.00;99.90
13944;DHT22;7044;53.286;8.534;2022-10-16T00:40:26;14.00;99.90
13944;DHT22;7044;53.286;8.534;2022-10-16T00:42:53;14.00;99.90
13944;DHT22;7044;53.286;8.534;2022-10-16T00:45:20;14.00;99.90
13944;DHT22;7044;53.286;8.534;2022-10-16T00:47:49;14.00;99.90
13944;DHT22;7044;53.286;8.534;2022-10-16T00:50:23;13.90;99.90
13944;DHT22;7044;53.286;8.534;2022-10-16T00:52:51;13.90;99.90
13944;DHT22;7044;53.286;8.534;2022-10-16T00:55:19;14.00;99.90
13944;DHT22;7044;53.286;8.534;2022-10-16T00:57:46;13.90;99.90
13944;DHT22;7044;53.286;8.534;2022-10-16T01:00:16;13.90;99.90
13944;DHT22;7044;53.286;8.534;2022-10-16T01:02:43;13.90;99.90
13944;DHT22;7044;53.286;8.534;2022-10-16T01:05:11;13.90;99.90
13944;DHT22;7044;53.286;8.534;2022-10-16T01:07:47;13.80;99.90
13944;DHT22;7044;53.286;8.534;2022-10-16T01:10:26;13.80;99.90
13944;DHT22;7044;53.286;8.534;2022-10-16T01:12:58;13.80;99.90
13944;DHT22;7044;53.286;8.534;2022-10-16T01:15:28;13.80;99.90
13944;DHT22;7044;53.286;8.534;2022-10-16T01:18:01;13.80;99.90
13944;DHT22;7044;53.286;8.534;2022-10-16T01:20:31;13.80;99.90
13944;DHT22;7044;53.286;8.534;2022-10-16T01:23:06;13.80;99.90
13944;DHT22;7044;53.286;8.534;2022-10-16T01:25:53;13.80;99.90
13944;DHT22;7044;53.286;8.534;2022-10-16T01:28:29;13.70;99.90
13944;DHT22;7044;53.286;8.534;2022-10-16T01:30:59;13.70;99.90
13944;DHT22;7044;53.286;8.534;2022-10-16T01:33:32;13.70;99.90
13944;DHT22;7044;53.286;8.534;2022-10-16T01:36:05;13.70;99.90
13944;DHT22;7044;53.286;8.534;2022-10-16T01:38:36;13.70;99.90
13944;DHT22;7044;53.286;8.534;2022-10-16T01:41:07;13.60;99.90
13944;DHT22;7044;53.286;8.534;2022-10-16T01:43:40;13.60;99.90
13944;DHT22;7044;53.286;8.534;2022-10-16T01:46:08;13.60;99.90
13944;DHT22;7044;53.286;8.534;2022-10-16T01:48:37;13.60;99.90
13944;DHT22;7044;53.286;8.534;2022-10-16T01:51:06;13.60;99.90
13944;DHT22;7044;53.286;8.534;2022-10-16T01:53:34;13.60;99.90
13944;DHT22;7044;53.286;8.534;2022-10-16T01:56:02;13.50;99.90
13944;DHT22;7044;53.286;8.534;2022-10-16T01:58:33;13.50;99.90
13944;DHT22;7044;53.286;8.534;2022-10-16T02:01:04;13.50;99.90
13944;DHT22;7044;53.286;8.534;2022-10-16T02:03:34;13.50;99.90
13944;DHT22;7044;53.286;8.534;2022-10-16T02:06:01;13.40;99.90
13944;DHT22;7044;53.286;8.534;2022-10-16T02:08:29;13.50;99.90
13944;DHT22;7044;53.286;8.534;2022-10-16T02:10:58;13.50;99.90
13944;DHT22;7044;53.286;8.534;2022-10-16T02:13:29;13.50;99.90
13944;DHT22;7044;53.286;8.534;2022-10-16T02:15:57;13.50;99.90
13944;DHT22;7044;53.286;8.534;2022-10-16T02:18:26;13.50;99.90
13944;DHT22;7044;53.286;8.534;2022-10-16T02:20:57;13.50;99.90
13944;DHT22;7044;53.286;8.534;2022-10-16T02:23:32;13.60;99.90
13944;DHT22;7044;53.286;8.534;2022-10-16T02:26:03;13.50;99.90
13944;DHT22;7044;53.286;8.534;2022-10-16T02:28:34;13.50;99.90
13944;DHT22;7044;53.286;8.534;2022-10-16T02:31:04;13.60;99.90
13944;DHT22;7044;53.286;8.534;2022-10-16T02:33:35;13.50;99.90
13944;DHT22;7044;53.286;8.534;2022-10-16T02:36:03;13.50;99.90
13944;DHT22;7044;53.286;8.534;2022-10-16T02:38:31;13.50;99.90
13944;DHT22;7044;53.286;8.534;2022-10-16T02:40:58;13.50;99.90
13944;DHT22;7044;53.286;8.534;2022-10-16T02:43:25;13.50;99.90
13944;DHT22;7044;53.286;8.534;2022-10-16T02:45:52;13.50;99.90
13944;DHT22;7044;53.286;8.534;2022-10-16T02:48:19;13.50;99.90
13944;DHT22;7044;53.286;8.534;2022-10-16T02:50:47;13.50;99.90
13944;DHT22;7044;53.286;8.534;2022-10-16T02:53:14;13.50;99.90
13944;DHT22;7044;53.286;8.534;2022-10-16T02:55:41;13.50;99.90
13944;DHT22;7044;53.286;8.534;2022-10-16T02:58:07;13.50;99.90
13944;DHT22;7044;53.286;8.534;2022-10-16T03:00:34;13.40;99.90
13944;DHT22;7044;53.286;8.534;2022-10-16T03:03:01;13.40;99.90
13944;DHT22;7044;53.286;8.534;2022-10-16T03:05:28;13.40;99.90
13944;DHT22;7044;53.286;8.534;2022-10-16T03:07:56;13.40;99.90
13944;DHT22;7044;53.286;8.534;2022-10-16T03:10:25;13.40;99.90
13944;DHT22;7044;53.286;8.534;2022-10-16T03:12:52;13.40;99.90
13944;DHT22;7044;53.286;8.534;2022-10-16T03:15:19;13.40;99.90
13944;DHT22;7044;53.286;8.534;2022-10-16T03:17:46;13.40;99.90
13944;DHT22;7044;53.286;8.534;2022-10-16T03:20:13;13.40;99.90
13944;DHT22;7044;53.286;8.534;2022-10-16T03:22:39;13.40;99.90
13944;DHT22;7044;53.286;8.534;2022-10-16T03:25:08;13.40;99.90
13944;DHT22;7044;53.286;8.534;2022-10-16T03:27:35;13.30;99.90
13944;DHT22;7044;53.286;8.534;2022-10-16T03:30:02;13.30;99.90
13944;DHT22;7044;53.286;8.534;2022-10-16T03:32:29;13.40;99.90
13944;DHT22;7044;53.286;8.534;2022-10-16T03:34:56;13.30;99.90
13944;DHT22;7044;53.286;8.534;2022-10-16T03:37:23;13.30;99.90
13944;DHT22;7044;53.286;8.534;2022-10-16T03:39:49;13.30;99.90
13944;DHT22;7044;53.286;8.534;2022-10-16T03:42:18;13.30;99.90
13944;DHT22;7044;53.286;8.534;2022-10-16T03:44:45;13.30;99.90
13944;DHT22;7044;53.286;8.534;2022-10-16T03:47:12;13.30;99.90
13944;DHT22;7044;53.286;8.534;2022-10-16T03:49:38;13.30;99.90
13944;DHT22;7044;53.286;8.534;2022-10-16T03:52:05;13.40;99.90
13944;DHT22;7044;53.286;8.534;2022-10-16T03:54:32;13.40;99.90
13944;DHT22;7044;53.286;8.534;2022-10-16T03:56:59;13.40;99.90
13944;DHT22;7044;53.286;8.534;2022-10-16T03:59:27;13.40;99.90
13944;DHT22;7044;53.286;8.534;2022-10-16T04:01:54;13.40;99.90
13944;DHT22;7044;53.286;8.534;2022-10-16T04:04:20;13.40;99.90
13944;DHT22;7044;53.286;8.534;2022-10-16T04:06:47;13.40;99.90
13944;DHT22;7044;53.286;8.534;2022-10-16T04:09:14;13.50;99.90
13944;DHT22;7044;53.286;8.534;2022-10-16T04:11:41;13.50;99.90
13944;DHT22;7044;53.286;8.534;2022-10-16T04:14:07;13.60;99.90
13944;DHT22;7044;53.286;8.534;2022-10-16T04:16:36;13.60;99.90
13944;DHT22;7044;53.286;8.534;2022-10-16T04:19:02;13.60;99.90
13944;DHT22;7044;53.286;8.534;2022-10-16T04:21:29;13.60;99.90
13944;DHT22;7044;53.286;8.534;2022-10-16T04:23:56;13.60;99.90
13944;DHT22;7044;53.286;8.534;2022-10-16T04:26:23;13.70;99.90
13944;DHT22;7044;53.286;8.534;2022-10-16T04:28:50;13.70;99.90
13944;DHT22;7044;53.286;8.534;2022-10-16T04:31:16;13.70;99.90
13944;DHT22;7044;53.286;8.534;2022-10-16T04:33:44;13.70;99.90
13944;DHT22;7044;53.286;8.534;2022-10-16T04:36:11;13.70;99.90
13944;DHT22;7044;53.286;8.534;2022-10-16T04:38:38;13.70;99.90
13944;DHT22;7044;53.286;8.534;2022-10-16T04:41:06;13.70;99.90
13944;DHT22;7044;53.286;8.534;2022-10-16T04:43:33;13.70;99.90
13944;DHT22;7044;53.286;8.534;2022-10-16T04:46:00;13.70;99.90
13944;DHT22;7044;53.286;8.534;2022-10-16T04:48:27;13.70;99.90
13944;DHT22;7044;53.286;8.534;2022-10-16T04:50:55;13.70;99.90
13944;DHT22;7044;53.286;8.534;2022-10-16T04:53:22;13.70;99.90
13944;DHT22;7044;53.286;8.534;2022-10-16T04:55:49;13.70;99.90
13944;DHT22;7044;53.286;8.534;2022-10-16T04:58:16;13.70;99.90
13944;DHT22;7044;53.286;8.534;2022-10-16T05:00:44;13.70;99.90
13944;DHT22;7044;53.286;8.534;2022-10-16T05:03:11;13.70;99.90
13944;DHT22;7044;53.286;8.534;2022-10-16T05:05:42;13.70;99.90
13944;DHT22;7044;53.286;8.534;2022-10-16T05:08:11;13.70;99.90
13944;DHT22;7044;53.286;8.534;2022-10-16T05:10:37;13.70;99.90
13944;DHT22;7044;53.286;8.534;2022-10-16T05:13:04;13.70;99.90
13944;DHT22;7044;53.286;8.534;2022-10-16T05:15:31;13.70;99.90
13944;DHT22;7044;53.286;8.534;2022-10-16T05:17:58;13.70;99.90
13944;DHT22;7044;53.286;8.534;2022-10-16T05:20:25;13.70;99.90
13944;DHT22;7044;53.286;8.534;2022-10-16T05:22:51;13.70;99.90
13944;DHT22;7044;53.286;8.534;2022-10-16T05:25:20;13.70;99.90
13944;DHT22;7044;53.286;8.534;2022-10-16T05:27:47;13.70;99.90
13944;DHT22;7044;53.286;8.534;2022-10-16T05:30:15;13.80;99.90
13944;DHT22;7044;53.286;8.534;2022-10-16T05:32:41;13.70;99.90
13944;DHT22;7044;53.286;8.534;2022-10-16T05:35:08;13.70;99.90
13944;DHT22;7044;53.286;8.534;2022-10-16T05:37:35;13.80;99.90
13944;DHT22;7044;53.286;8.534;2022-10-16T05:40:02;13.80;99.90
13944;DHT22;7044;53.286;8.534;2022-10-16T05:42:31;13.70;99.90
13944;DHT22;7044;53.286;8.534;2022-10-16T05:44:58;13.70;99.90
13944;DHT22;7044;53.286;8.534;2022-10-16T05:47:25;13.80;99.90
13944;DHT22;7044;53.286;8.534;2022-10-16T05:49:52;13.80;99.90
13944;DHT22;7044;53.286;8.534;2022-10-16T05:52:18;13.80;99.90
13944;DHT22;7044;53.286;8.534;2022-10-16T05:54:45;13.80;99.90
13944;DHT22;7044;53.286;8.534;2022-10-16T05:57:12;13.80;99.90
13944;DHT22;7044;53.286;8.534;2022-10-16T05:59:40;13.80;99.90
13944;DHT22;7044;53.286;8.534;2022-10-16T06:02:08;13.80;99.90
13944;DHT22;7044;53.286;8.534;2022-10-16T06:04:38;13.80;99.90
13944;DHT22;7044;53.286;8.534;2022-10-16T06:07:05;13.80;99.90
13944;DHT22;7044;53.286;8.534;2022-10-16T06:09:31;13.80;99.90
13944;DHT22;7044;53.286;8.534;2022-10-16T06:11:58;13.80;99.90
13944;DHT22;7044;53.286;8.534;2022-10-16T06:14:25;13.80;99.90
13944;DHT22;7044;53.286;8.534;2022-10-16T06:16:54;13.80;99.90
13944;DHT22;7044;53.286;8.534;2022-10-16T06:19:21;13.80;99.90
13944;DHT22;7044;53.286;8.534;2022-10-16T06:21:48;13.80;99.90
13944;DHT22;7044;53.286;8.534;2022-10-16T06:24:15;13.90;99.90
13944;DHT22;7044;53.286;8.534;2022-10-16T06:26:41;13.90;99.90
13944;DHT22;7044;53.286;8.534;2022-10-16T06:29:08;13.90;99.90
13944;DHT22;7044;53.286;8.534;2022-10-16T06:31:35;13.90;99.90
13944;DHT22;7044;53.286;8.534;2022-10-16T06:34:03;13.90;99.90
13944;DHT22;7044;53.286;8.534;2022-10-16T06:36:34;13.90;99.90
13944;DHT22;7044;53.286;8.534;2022-10-16T06:39:01;13.90;99.90
13944;DHT22;7044;53.286;8.534;2022-10-16T06:41:28;13.90;99.90
13944;DHT22;7044;53.286;8.534;2022-10-16T06:43:55;13.90;99.90
13944;DHT22;7044;53.286;8.534;2022-10-16T06:46:23;13.90;99.90
13944;DHT22;7044;53.286;8.534;2022-10-16T06:48:50;13.90;99.90
13944;DHT22;7044;53.286;8.534;2022-10-16T06:51:19;14.00;99.90
13944;DHT22;7044;53.286;8.534;2022-10-16T06:53:48;14.00;99.90
13944;DHT22;7044;53.286;8.534;2022-10-16T06:56:17;14.00;99.90
13944;DHT22;7044;53.286;8.534;2022-10-16T06:58:44;14.10;99.90
13944;DHT22;7044;53.286;8.534;2022-10-16T07:01:12;14.10;99.90
13944;DHT22;7044;53.286;8.534;2022-10-16T07:03:40;14.10;99.90
13944;DHT22;7044;53.286;8.534;2022-10-16T07:06:08;14.10;99.90
13944;DHT22;7044;53.286;8.534;2022-10-16T07:08:38;14.10;99.90
13944;DHT22;7044;53.286;8.534;2022-10-16T07:11:07;14.10;99.90
13944;DHT22;7044;53.286;8.534;2022-10-16T07:13:35;14.20;99.90
13944;DHT22;7044;53.286;8.534;2022-10-16T07:16:06;14.20;99.90
13944;DHT22;7044;53.286;8.534;2022-10-16T07:18:33;14.20;99.90
13944;DHT22;7044;53.286;8.534;2022-10-16T07:21:04;14.20;99.90
13944;DHT22;7044;53.286;8.534;2022-10-16T07:23:31;14.30;99.90
13944;DHT22;7044;53.286;8.534;2022-10-16T07:25:59;14.70;99.90
13944;DHT22;7044;53.286;8.534;2022-10-16T07:28:26;14.70;99.90
13944;DHT22;7044;53.286;8.534;2022-10-16T07:30:53;14.70;99.90
13944;DHT22;7044;53.286;8.534;2022-10-16T07:33:20;14.60;99.90
13944;DHT22;7044;53.286;8.534;2022-10-16T07:35:51;14.60;99.90
13944;DHT22;7044;53.286;8.534;2022-10-16T07:38:18;14.50;99.90
13944;DHT22;7044;53.286;8.534;2022-10-16T07:40:46;14.50;99.90
13944;DHT22;7044;53.286;8.534;2022-10-16T07:43:14;14.50;99.90
13944;DHT22;7044;53.286;8.534;2022-10-16T07:45:48;14.40;99.90
13944;DHT22;7044;53.286;8.534;2022-10-16T07:48:16;14.40;99.90
13944;DHT22;7044;53.286;8.534;2022-10-16T07:50:43;14.40;99.90
13944;DHT22;7044;53.286;8.534;2022-10-16T07:53:10;14.50;99.90
13944;DHT22;7044;53.286;8.534;2022-10-16T07:55:37;14.50;99.90
13944;DHT22;7044;53.286;8.534;2022-10-16T07:58:04;14.50;99.90
13944;DHT22;7044;53.286;8.534;2022-10-16T08:00:33;14.50;99.90
13944;DHT22;7044;53.286;8.534;2022-10-16T08:03:00;14.50;99.90
13944;DHT22;7044;53.286;8.534;2022-10-16T08:05:27;14.50;99.90
13944;DHT22;7044;53.286;8.534;2022-10-16T08:07:54;14.50;99.90
13944;DHT22;7044;53.286;8.534;2022-10-16T08:10:23;14.50;99.90
13944;DHT22;7044;53.286;8.534;2022-10-16T08:12:50;14.50;99.90
13944;DHT22;7044;53.286;8.534;2022-10-16T08:15:18;14.50;99.90
13944;DHT22;7044;53.286;8.534;2022-10-16T08:17:54;14.60;99.90
13944;DHT22;7044;53.286;8.534;2022-10-16T08:20:21;14.50;99.90
13944;DHT22;7044;53.286;8.534;2022-10-16T08:22:48;14.60;99.90
13944;DHT22;7044;53.286;8.534;2022-10-16T08:25:15;14.60;99.90
13944;DHT22;7044;53.286;8.534;2022-10-16T08:27:42;14.60;99.90
13944;DHT22;7044;53.286;8.534;2022-10-16T08:30:10;14.70;99.90
13944;DHT22;7044;53.286;8.534;2022-10-16T08:32:37;14.70;99.90
13944;DHT22;7044;53.286;8.534;2022-10-16T08:35:06;14.70;99.90
13944;DHT22;7044;53.286;8.534;2022-10-16T08:37:33;14.80;99.90
13944;DHT22;7044;53.286;8.534;2022-10-16T08:40:00;14.90;99.90
13944;DHT22;7044;53.286;8.534;2022-10-16T08:42:38;15.00;99.90
13944;DHT22;7044;53.286;8.534;2022-10-16T08:45:19;15.00;99.90
13944;DHT22;7044;53.286;8.534;2022-10-16T08:47:51;15.10;99.90
13944;DHT22;7044;53.286;8.534;2022-10-16T08:50:25;15.10;99.90
13944;DHT22;7044;53.286;8.534;2022-10-16T08:52:54;15.90;99.90
13944;DHT22;7044;53.286;8.534;2022-10-16T08:55:33;15.10;99.90
13944;DHT22;7044;53.286;8.534;2022-10-16T08:58:01;15.10;99.90
13944;DHT22;7044;53.286;8.534;2022-10-16T09:00:28;15.10;99.90
13944;DHT22;7044;53.286;8.534;2022-10-16T09:03:04;15.10;99.90
13944;DHT22;7044;53.286;8.534;2022-10-16T09:05:46;15.10;99.90
13944;DHT22;7044;53.286;8.534;2022-10-16T09:08:24;15.10;99.90
13944;DHT22;7044;53.286;8.534;2022-10-16T09:10:58;15.10;99.90
13944;DHT22;7044;53.286;8.534;2022-10-16T09:13:28;15.10;99.90
13944;DHT22;7044;53.286;8.534;2022-10-16T09:16:01;15.10;99.90
13944;DHT22;7044;53.286;8.534;2022-10-16T09:18:39;15.10;99.90
13944;DHT22;7044;53.286;8.534;2022-10-16T09:21:13;15.00;99.90
13944;DHT22;7044;53.286;8.534;2022-10-16T09:23:40;15.10;99.90
13944;DHT22;7044;53.286;8.534;2022-10-16T09:26:11;15.10;99.90
13944;DHT22;7044;53.286;8.534;2022-10-16T09:28:38;15.10;99.90
13944;DHT22;7044;53.286;8.534;2022-10-16T09:31:05;15.20;99.90
13944;DHT22;7044;53.286;8.534;2022-10-16T09:33:35;15.30;99.90
13944;DHT22;7044;53.286;8.534;2022-10-16T09:36:04;15.40;99.90
13944;DHT22;7044;53.286;8.534;2022-10-16T09:38:34;15.50;99.90
13944;DHT22;7044;53.286;8.534;2022-10-16T09:41:10;15.50;99.90
13944;DHT22;7044;53.286;8.534;2022-10-16T09:43:41;15.50;99.90
13944;DHT22;7044;53.286;8.534;2022-10-16T09:46:19;15.50;99.90
13944;DHT22;7044;53.286;8.534;2022-10-16T09:48:49;15.50;99.90
13944;DHT22;7044;53.286;8.534;2022-10-16T09:51:19;15.50;99.90
13944;DHT22;7044;53.286;8.534;2022-10-16T09:53:48;15.50;99.90
13944;DHT22;7044;53.286;8.534;2022-10-16T09:56:22;15.50;99.90
13944;DHT22;7044;53.286;8.534;2022-10-16T09:58:50;15.50;99.90
13944;DHT22;7044;53.286;8.534;2022-10-16T10:01:19;15.50;99.90
13944;DHT22;7044;53.286;8.534;2022-10-16T10:03:46;15.50;99.90
13944;DHT22;7044;53.286;8.534;2022-10-16T10:06:18;15.50;99.90
13944;DHT22;7044;53.286;8.534;2022-10-16T10:08:58;15.50;99.90
13944;DHT22;7044;53.286;8.534;2022-10-16T10:11:39;15.50;99.90
13944;DHT22;7044;53.286;8.534;2022-10-16T10:14:08;15.60;99.90
13944;DHT22;7044;53.286;8.534;2022-10-16T10:16:40;15.60;99.90
13944;DHT22;7044;53.286;8.534;2022-10-16T10:19:14;15.70;99.90
13944;DHT22;7044;53.286;8.534;2022-10-16T10:21:41;15.70;99.90
13944;DHT22;7044;53.286;8.534;2022-10-16T10:24:12;16.70;99.90
13944;DHT22;7044;53.286;8.534;2022-10-16T10:26:44;15.90;99.90
13944;DHT22;7044;53.286;8.534;2022-10-16T10:29:20;15.90;99.90
13944;DHT22;7044;53.286;8.534;2022-10-16T10:31:54;15.90;99.90
13944;DHT22;7044;53.286;8.534;2022-10-16T10:34:36;15.90;99.90
13944;DHT22;7044;53.286;8.534;2022-10-16T10:37:15;15.90;99.90
13944;DHT22;7044;53.286;8.534;2022-10-16T10:39:54;15.90;99.90
13944;DHT22;7044;53.286;8.534;2022-10-16T10:42:27;16.00;99.90
13944;DHT22;7044;53.286;8.534;2022-10-16T10:45:06;16.00;99.90
13944;DHT22;7044;53.286;8.534;2022-10-16T10:47:47;16.00;99.90
13944;DHT22;7044;53.286;8.534;2022-10-16T10:50:22;16.00;99.90
13944;DHT22;7044;53.286;8.534;2022-10-16T10:52:59;16.00;99.90
13944;DHT22;7044;53.286;8.534;2022-10-16T10:55:37;16.00;99.90
13944;DHT22;7044;53.286;8.534;2022-10-16T10:58:33;16.10;99.90
13944;DHT22;7044;53.286;8.534;2022-10-16T11:01:08;16.10;99.90
13944;DHT22;7044;53.286;8.534;2022-10-16T11:06:26;16.20;99.90
13944;DHT22;7044;53.286;8.534;2022-10-16T11:09:02;16.20;99.90
13944;DHT22;7044;53.286;8.534;2022-10-16T11:11:36;16.20;99.90
13944;DHT22;7044;53.286;8.534;2022-10-16T11:14:09;16.20;99.90
13944;DHT22;7044;53.286;8.534;2022-10-16T11:16:42;16.20;99.90
13944;DHT22;7044;53.286;8.534;2022-10-16T11:19:14;16.20;99.90
13944;DHT22;7044;53.286;8.534;2022-10-16T11:21:47;16.20;99.90
13944;DHT22;7044;53.286;8.534;2022-10-16T11:24:20;16.30;99.90
13944;DHT22;7044;53.286;8.534;2022-10-16T11:26:52;16.30;99.90
13944;DHT22;7044;53.286;8.534;2022-10-16T11:29:25;16.40;99.90
13944;DHT22;7044;53.286;8.534;2022-10-16T11:31:57;16.30;99.90
13944;DHT22;7044;53.286;8.534;2022-10-16T11:34:28;16.50;99.90
13944;DHT22;7044;53.286;8.534;2022-10-16T11:37:02;16.50;99.90
13944;DHT22;7044;53.286;8.534;2022-10-16T11:39:32;16.50;99.90
13944;DHT22;7044;53.286;8.534;2022-10-16T11:42:04;16.50;99.90
13944;DHT22;7044;53.286;8.534;2022-10-16T11:44:41;16.60;99.90
13944;DHT22;7044;53.286;8.534;2022-10-16T11:47:26;16.70;99.90
13944;DHT22;7044;53.286;8.534;2022-10-16T11:49:59;16.60;99.90
13944;DHT22;7044;53.286;8.534;2022-10-16T11:52:33;16.50;99.90
13944;DHT22;7044;53.286;8.534;2022-10-16T11:55:05;16.40;99.90
13944;DHT22;7044;53.286;8.534;2022-10-16T11:57:40;16.40;99.90
13944;DHT22;7044;53.286;8.534;2022-10-16T12:00:14;16.30;99.90
13944;DHT22;7044;53.286;8.534;2022-10-16T12:02:54;16.20;99.90
13944;DHT22;7044;53.286;8.534;2022-10-16T12:05:29;16.20;99.90
13944;DHT22;7044;53.286;8.534;2022-10-16T12:08:08;16.30;99.90
13944;DHT22;7044;53.286;8.534;2022-10-16T12:10:37;16.40;99.90
13944;DHT22;7044;53.286;8.534;2022-10-16T12:13:29;16.50;99.90
13944;DHT22;7044;53.286;8.534;2022-10-16T12:16:05;16.60;99.90
13944;DHT22;7044;53.286;8.534;2022-10-16T12:18:32;16.60;99.90
13944;DHT22;7044;53.286;8.534;2022-10-16T12:20:59;16.70;99.90
13944;DHT22;7044;53.286;8.534;2022-10-16T12:23:31;16.70;99.90
13944;DHT22;7044;53.286;8.534;2022-10-16T12:25:59;16.60;99.90
13944;DHT22;7044;53.286;8.534;2022-10-16T12:28:30;16.60;99.90
13944;DHT22;7044;53.286;8.534;2022-10-16T12:30:59;16.70;99.90
13944;DHT22;7044;53.286;8.534;2022-10-16T12:33:29;16.80;99.90
13944;DHT22;7044;53.286;8.534;2022-10-16T12:35:57;16.80;99.90
13944;DHT22;7044;53.286;8.534;2022-10-16T12:38:27;16.80;99.90
13944;DHT22;7044;53.286;8.534;2022-10-16T12:40:58;16.90;99.90
13944;DHT22;7044;53.286;8.534;2022-10-16T12:43:38;16.90;99.90
13944;DHT22;7044;53.286;8.534;2022-10-16T12:46:23;16.90;99.90
13944;DHT22;7044;53.286;8.534;2022-10-16T12:48:51;16.80;99.90
13944;DHT22;7044;53.286;8.534;2022-10-16T12:51:34;16.80;99.90
13944;DHT22;7044;53.286;8.534;2022-10-16T12:54:03;16.80;99.90
13944;DHT22;7044;53.286;8.534;2022-10-16T12:56:39;16.70;99.90
13944;DHT22;7044;53.286;8.534;2022-10-16T12:59:17;16.60;99.90
13944;DHT22;7044;53.286;8.534;2022-10-16T13:02:01;16.60;99.90
13944;DHT22;7044;53.286;8.534;2022-10-16T13:04:58;16.60;99.90
13944;DHT22;7044;53.286;8.534;2022-10-16T13:07:48;16.70;99.90
13944;DHT22;7044;53.286;8.534;2022-10-16T13:10:23;16.70;99.90
13944;DHT22;7044;53.286;8.534;2022-10-16T13:13:06;16.70;99.90
13944;DHT22;7044;53.286;8.534;2022-10-16T13:15:58;16.70;99.90
13944;DHT22;7044;53.286;8.534;2022-10-16T13:18:36;16.70;99.90
13944;DHT22;7044;53.286;8.534;2022-10-16T13:21:17;16.60;99.90
13944;DHT22;7044;53.286;8.534;2022-10-16T13:23:51;16.60;99.90
13944;DHT22;7044;53.286;8.534;2022-10-16T13:26:28;16.60;99.90
13944;DHT22;7044;53.286;8.534;2022-10-16T13:28:59;16.60;99.90
13944;DHT22;7044;53.286;8.534;2022-10-16T13:31:28;16.50;99.90
13944;DHT22;7044;53.286;8.534;2022-10-16T13:33:58;16.50;99.90
13944;DHT22;7044;53.286;8.534;2022-10-16T13:36:27;16.40;99.90
13944;DHT22;7044;53.286;8.534;2022-10-16T13:39:06;16.40;99.90
13944;DHT22;7044;53.286;8.534;2022-10-16T13:41:34;16.50;99.90
13944;DHT22;7044;53.286;8.534;2022-10-16T13:44:01;16.50;99.90
13944;DHT22;7044;53.286;8.534;2022-10-16T13:46:29;16.50;99.90
13944;DHT22;7044;53.286;8.534;2022-10-16T13:49:01;16.60;99.90
13944;DHT22;7044;53.286;8.534;2022-10-16T13:51:31;16.60;99.90
13944;DHT22;7044;53.286;8.534;2022-10-16T13:53:58;16.50;99.90
13944;DHT22;7044;53.286;8.534;2022-10-16T13:56:27;16.50;99.90
13944;DHT22;7044;53.286;8.534;2022-10-16T13:59:02;16.50;99.90
13944;DHT22;7044;53.286;8.534;2022-10-16T14:01:31;16.60;99.90
13944;DHT22;7044;53.286;8.534;2022-10-16T14:04:02;16.50;99.90
13944;DHT22;7044;53.286;8.534;2022-10-16T14:06:31;16.50;99.90
13944;DHT22;7044;53.286;8.534;2022-10-16T14:09:01;16.50;99.90
13944;DHT22;7044;53.286;8.534;2022-10-16T14:11:31;16.50;99.90
13944;DHT22;7044;53.286;8.534;2022-10-16T14:13:58;16.50;99.90
13944;DHT22;7044;53.286;8.534;2022-10-16T14:16:27;16.50;99.90
13944;DHT22;7044;53.286;8.534;2022-10-16T14:18:58;16.50;99.90
13944;DHT22;7044;53.286;8.534;2022-10-16T14:21:26;16.50;99.90
13944;DHT22;7044;53.286;8.534;2022-10-16T14:23:54;16.40;99.90
13944;DHT22;7044;53.286;8.534;2022-10-16T14:26:23;16.30;99.90
13944;DHT22;7044;53.286;8.534;2022-10-16T14:29:03;16.30;99.90
13944;DHT22;7044;53.286;8.534;2022-10-16T14:31:32;16.30;99.90
13944;DHT22;7044;53.286;8.534;2022-10-16T14:34:02;16.40;99.90
13944;DHT22;7044;53.286;8.534;2022-10-16T14:36:30;16.40;99.90
13944;DHT22;7044;53.286;8.534;2022-10-16T14:39:00;16.40;99.90
13944;DHT22;7044;53.286;8.534;2022-10-16T14:41:28;16.40;99.90
13944;DHT22;7044;53.286;8.534;2022-10-16T14:43:56;16.40;99.90
13944;DHT22;7044;53.286;8.534;2022-10-16T14:46:31;16.40;99.90
13944;DHT22;7044;53.286;8.534;2022-10-16T14:49:03;16.30;99.90
13944;DHT22;7044;53.286;8.534;2022-10-16T14:51:32;16.30;99.90
13944;DHT22;7044;53.286;8.534;2022-10-16T14:53:59;16.30;99.90
13944;DHT22;7044;53.286;8.534;2022-10-16T14:56:30;16.30;99.90
13944;DHT22;7044;53.286;8.534;2022-10-16T14:58:57;16.30;99.90
13944;DHT22;7044;53.286;8.534;2022-10-16T15:01:24;16.30;99.90
13944;DHT22;7044;53.286;8.534;2022-10-16T15:03:51;16.20;99.90
13944;DHT22;7044;53.286;8.534;2022-10-16T15:06:21;16.20;99.90
13944;DHT22;7044;53.286;8.534;2022-10-16T15:08:48;16.20;99.90
13944;DHT22;7044;53.286;8.534;2022-10-16T15:11:17;16.10;99.90
13944;DHT22;7044;53.286;8.534;2022-10-16T15:13:44;16.10;99.90
13944;DHT22;7044;53.286;8.534;2022-10-16T15:16:13;16.10;99.90
13944;DHT22;7044;53.286;8.534;2022-10-16T15:18:40;16.00;99.90
13944;DHT22;7044;53.286;8.534;2022-10-16T15:21:07;16.00;99.90
13944;DHT22;7044;53.286;8.534;2022-10-16T15:23:35;16.00;99.90
13944;DHT22;7044;53.286;8.534;2022-10-16T15:26:02;15.90;99.90
13944;DHT22;7044;53.286;8.534;2022-10-16T15:28:29;15.90;99.90
13944;DHT22;7044;53.286;8.534;2022-10-16T15:30:57;15.90;99.90
13944;DHT22;7044;53.286;8.534;2022-10-16T15:33:25;15.80;99.90
13944;DHT22;7044;53.286;8.534;2022-10-16T15:35:58;15.70;99.90
13944;DHT22;7044;53.286;8.534;2022-10-16T15:38:26;15.70;99.90
13944;DHT22;7044;53.286;8.534;2022-10-16T15:40:55;15.70;99.90
13944;DHT22;7044;53.286;8.534;2022-10-16T15:43:22;15.60;99.90
13944;DHT22;7044;53.286;8.534;2022-10-16T15:45:59;15.60;99.90
13944;DHT22;7044;53.286;8.534;2022-10-16T15:48:26;15.60;99.90
13944;DHT22;7044;53.286;8.534;2022-10-16T15:50:53;15.50;99.90
13944;DHT22;7044;53.286;8.534;2022-10-16T15:53:20;15.50;99.90
13944;DHT22;7044;53.286;8.534;2022-10-16T15:55:47;15.50;99.90
13944;DHT22;7044;53.286;8.534;2022-10-16T15:58:15;15.50;99.90
13944;DHT22;7044;53.286;8.534;2022-10-16T16:00:42;15.40;99.90
13944;DHT22;7044;53.286;8.534;2022-10-16T16:03:09;15.40;99.90
13944;DHT22;7044;53.286;8.534;2022-10-16T16:05:37;15.40;99.90